createdAt,value
2016-05-22T00:00:00.263Z,0
2016-05-22T00:01:00.282Z,0
2016-05-22T00:02:00.299Z,0
2016-05-22T00:03:00.177Z,0
2016-05-22T00:04:00.368Z,0
2016-05-22T00:05:00.401Z,0
2016-05-22T00:06:00.263Z,0
2016-05-22T00:07:00.282Z,0
2016-05-22T00:08:00.487Z,0
2016-05-22T00:09:00.351Z,0
2016-05-22T00:10:00.228Z,0
2016-05-22T00:11:00.901Z,0
2016-05-22T00:12:00.624Z,0
2016-05-22T00:13:00.986Z,0
2016-05-22T00:14:00.659Z,0
2016-05-22T00:15:00.679Z,0
2016-05-22T00:16:00.384Z,0
2016-05-22T00:17:00.715Z,0
2016-05-22T00:18:00.749Z,0
2016-05-22T00:19:00.767Z,0
2016-05-22T00:20:00.645Z,0
2016-05-22T00:21:00.835Z,0
2016-05-22T00:22:00.853Z,0
2016-05-22T00:23:00.716Z,0
2016-05-22T00:24:00.968Z,0
2016-05-22T00:25:00.925Z,0
2016-05-22T00:26:00.958Z,0
2016-05-22T00:27:02.413Z,0
2016-05-22T00:28:00.948Z,0
2016-05-22T00:29:00.904Z,0
2016-05-22T00:30:00.953Z,0
2016-05-22T00:31:00.955Z,0
2016-05-22T00:32:01.130Z,0
2016-05-22T00:33:01.180Z,0
2016-05-22T00:34:01.026Z,0
2016-05-22T00:35:01.232Z,0
2016-05-22T00:36:01.251Z,0
2016-05-22T00:37:01.285Z,0
2016-05-22T00:38:01.131Z,0
2016-05-22T00:39:01.321Z,0
2016-05-22T00:40:01.184Z,0
2016-05-22T00:41:01.389Z,0
2016-05-22T00:42:01.407Z,0
2016-05-22T00:43:01.332Z,0
2016-05-22T00:44:01.459Z,0
2016-05-22T00:45:01.479Z,0
2016-05-22T00:46:01.356Z,0
2016-05-22T00:47:01.561Z,0
2016-05-22T00:48:01.565Z,0
2016-05-22T00:49:01.598Z,0
2016-05-22T00:50:01.460Z,0
2016-05-22T00:51:01.650Z,0
2016-05-22T00:52:01.700Z,0
2016-05-22T00:53:01.703Z,0
2016-05-22T00:54:01.736Z,0
2016-05-22T00:55:01.770Z,0
2016-05-22T00:56:01.789Z,0
2016-05-22T00:57:01.822Z,0
2016-05-22T00:58:02.028Z,0
2016-05-22T00:59:01.875Z,0
2016-05-22T01:00:01.738Z,0
2016-05-22T01:01:01.927Z,0
2016-05-22T01:02:01.961Z,0
2016-05-22T01:03:01.979Z,0
2016-05-22T01:04:01.998Z,0
2016-05-22T01:05:02.016Z,0
2016-05-22T01:06:02.034Z,0
2016-05-22T01:07:02.084Z,0
2016-05-22T01:08:02.102Z,0
2016-05-22T01:09:02.137Z,0
2016-05-22T01:10:02.170Z,0
2016-05-22T01:11:02.173Z,0
2016-05-22T01:12:02.223Z,0
2016-05-22T01:13:02.475Z,0
2016-05-22T01:14:02.259Z,0
2016-05-22T01:15:02.278Z,0
2016-05-22T01:16:02.311Z,0
2016-05-22T01:17:02.330Z,0
2016-05-22T01:18:02.379Z,0
2016-05-22T01:19:02.381Z,0
2016-05-22T01:20:02.416Z,0
2016-05-22T01:21:02.450Z,0
2016-05-22T01:22:02.468Z,0
2016-05-22T01:23:02.503Z,0
2016-05-22T01:24:02.536Z,0
2016-05-22T01:25:02.555Z,0
2016-05-22T01:26:02.572Z,0
2016-05-22T01:27:02.435Z,0
2016-05-22T01:28:02.328Z,0
2016-05-22T01:29:02.674Z,0
2016-05-22T01:30:02.677Z,0
2016-05-22T01:31:02.695Z,0
2016-05-22T01:32:02.729Z,0
2016-05-22T01:33:02.763Z,0
2016-05-22T01:34:02.641Z,0
2016-05-22T01:35:02.799Z,0
2016-05-22T01:36:02.834Z,0
2016-05-22T01:37:02.555Z,0
2016-05-22T01:38:02.886Z,0
2016-05-22T01:39:02.935Z,0
2016-05-22T01:40:02.938Z,0
2016-05-22T01:41:02.972Z,0
2016-05-22T01:42:02.851Z,0
2016-05-22T01:43:03.509Z,0
2016-05-22T01:44:02.746Z,0
2016-05-22T01:45:03.076Z,0
2016-05-22T01:46:03.111Z,0
2016-05-22T01:47:03.114Z,0
2016-05-22T01:48:03.148Z,0
2016-05-22T01:49:03.197Z,0
2016-05-22T01:50:03.215Z,0
2016-05-22T01:51:03.234Z,0
2016-05-22T01:52:03.252Z,0
2016-05-22T01:53:03.286Z,0
2016-05-22T01:54:03.303Z,0
2016-05-22T01:55:03.339Z,0
2016-05-22T01:56:03.356Z,0
2016-05-22T01:57:03.375Z,0
2016-05-22T01:58:03.768Z,0
2016-05-22T01:59:03.442Z,0
2016-05-22T02:00:03.461Z,0
2016-05-22T02:01:03.495Z,0
2016-05-22T02:02:03.513Z,0
2016-05-22T02:03:03.547Z,0
2016-05-22T02:04:03.565Z,0
2016-05-22T02:05:03.631Z,0
2016-05-22T02:06:03.633Z,0
2016-05-22T02:07:03.651Z,0
2016-05-22T02:08:03.686Z,0
2016-05-22T02:09:03.704Z,0
2016-05-22T02:10:03.566Z,0
2016-05-22T02:11:03.756Z,0
2016-05-22T02:12:03.634Z,0
2016-05-22T02:13:03.590Z,0
2016-05-22T02:14:03.671Z,0
2016-05-22T02:15:03.876Z,0
2016-05-22T02:16:03.879Z,0
2016-05-22T02:17:03.913Z,0
2016-05-22T02:18:03.931Z,0
2016-05-22T02:19:05.481Z,0
2016-05-22T02:20:03.984Z,0
2016-05-22T02:21:03.862Z,0
2016-05-22T02:22:04.036Z,0
2016-05-22T02:23:04.070Z,0
2016-05-22T02:24:04.088Z,0
2016-05-22T02:25:04.106Z,0
2016-05-22T02:26:03.984Z,0
2016-05-22T02:27:04.159Z,0
2016-05-22T02:28:04.067Z,0
2016-05-22T02:29:04.055Z,0
2016-05-22T02:30:04.073Z,0
2016-05-22T02:31:04.263Z,0
2016-05-22T02:32:04.297Z,0
2016-05-22T02:33:04.175Z,0
2016-05-22T02:34:04.334Z,0
2016-05-22T02:35:04.399Z,0
2016-05-22T02:36:04.402Z,0
2016-05-22T02:37:04.419Z,0
2016-05-22T02:38:04.438Z,0
2016-05-22T02:39:04.316Z,0
2016-05-22T02:40:04.507Z,0
2016-05-22T02:41:04.368Z,0
2016-05-22T02:42:04.543Z,0
2016-05-22T02:43:04.905Z,0
2016-05-22T02:44:04.610Z,0
2016-05-22T02:45:04.628Z,0
2016-05-22T02:46:04.648Z,0
2016-05-22T02:47:04.681Z,0
2016-05-22T02:48:04.731Z,0
2016-05-22T02:49:04.734Z,0
2016-05-22T02:50:04.751Z,0
2016-05-22T02:51:04.801Z,0
2016-05-22T02:52:04.648Z,0
2016-05-22T02:53:04.697Z,0
2016-05-22T02:54:04.856Z,0
2016-05-22T02:55:04.890Z,0
2016-05-22T02:56:04.908Z,0
2016-05-22T02:57:04.817Z,0
2016-05-22T02:58:05.086Z,0
2016-05-22T02:59:04.978Z,0
2016-05-22T03:00:05.013Z,0
2016-05-22T03:01:04.875Z,0
2016-05-22T03:02:04.909Z,0
2016-05-22T03:03:04.927Z,0
2016-05-22T03:04:05.116Z,0
2016-05-22T03:05:05.136Z,0
2016-05-22T03:06:05.013Z,0
2016-05-22T03:07:05.188Z,0
2016-05-22T03:08:05.222Z,0
2016-05-22T03:09:05.241Z,0
2016-05-22T03:10:05.133Z,0
2016-05-22T03:11:05.292Z,0
2016-05-22T03:12:05.310Z,0
2016-05-22T03:13:05.391Z,0
2016-05-22T03:14:05.223Z,0
2016-05-22T03:15:05.396Z,0
2016-05-22T03:16:05.259Z,0
2016-05-22T03:17:05.277Z,0
2016-05-22T03:18:05.186Z,0
2016-05-22T03:19:05.502Z,0
2016-05-22T03:20:05.535Z,0
2016-05-22T03:21:05.398Z,0
2016-05-22T03:22:05.556Z,0
2016-05-22T03:23:05.590Z,0
2016-05-22T03:24:05.609Z,0
2016-05-22T03:25:05.658Z,0
2016-05-22T03:26:05.520Z,0
2016-05-22T03:27:05.695Z,0
2016-05-22T03:28:06.244Z,0
2016-05-22T03:29:05.434Z,0
2016-05-22T03:30:05.625Z,0
2016-05-22T03:31:05.848Z,0
2016-05-22T03:32:05.897Z,0
2016-05-22T03:33:05.792Z,0
2016-05-22T03:34:06.013Z,0
2016-05-22T03:35:06.052Z,0
2016-05-22T03:36:05.941Z,0
2016-05-22T03:37:06.126Z,0
2016-05-22T03:38:06.016Z,0
2016-05-22T03:39:06.216Z,0
2016-05-22T03:40:06.087Z,0
2016-05-22T03:41:06.124Z,0
2016-05-22T03:42:06.287Z,0
2016-05-22T03:43:06.324Z,0
2016-05-22T03:44:06.348Z,0
2016-05-22T03:45:06.244Z,0
2016-05-22T03:46:06.405Z,0
2016-05-22T03:47:06.425Z,0
2016-05-22T03:48:06.460Z,0
2016-05-22T03:49:06.512Z,0
2016-05-22T03:50:06.373Z,0
2016-05-22T03:51:06.533Z,0
2016-05-22T03:52:06.568Z,0
2016-05-22T03:53:06.602Z,0
2016-05-22T03:54:06.464Z,0
2016-05-22T03:55:06.639Z,0
2016-05-22T03:56:06.673Z,0
2016-05-22T03:57:06.691Z,0
2016-05-22T03:58:06.428Z,0
2016-05-22T03:59:06.743Z,0
2016-05-22T04:00:06.761Z,0
2016-05-22T04:01:06.483Z,0
2016-05-22T04:02:06.814Z,0
2016-05-22T04:03:06.832Z,0
2016-05-22T04:04:06.741Z,0
2016-05-22T04:05:06.884Z,0
2016-05-22T04:06:06.918Z,0
2016-05-22T04:07:06.938Z,0
2016-05-22T04:08:06.955Z,0
2016-05-22T04:09:06.848Z,0
2016-05-22T04:10:06.851Z,0
2016-05-22T04:11:07.041Z,0
2016-05-22T04:12:07.076Z,0
2016-05-22T04:13:07.438Z,0
2016-05-22T04:14:07.112Z,0
2016-05-22T04:15:07.145Z,0
2016-05-22T04:16:07.023Z,0
2016-05-22T04:17:07.182Z,0
2016-05-22T04:18:07.060Z,0
2016-05-22T04:19:07.079Z,0
2016-05-22T04:20:07.254Z,0
2016-05-22T04:21:07.286Z,0
2016-05-22T04:22:07.306Z,0
2016-05-22T04:23:07.198Z,0
2016-05-22T04:24:07.358Z,0
2016-05-22T04:25:07.236Z,0
2016-05-22T04:26:07.411Z,0
2016-05-22T04:27:07.428Z,0
2016-05-22T04:28:08.041Z,0
2016-05-22T04:29:07.481Z,0
2016-05-22T04:30:07.358Z,0
2016-05-22T04:31:07.533Z,0
2016-05-22T04:32:07.426Z,0
2016-05-22T04:33:07.585Z,0
2016-05-22T04:34:07.619Z,0
2016-05-22T04:35:07.637Z,0
2016-05-22T04:36:07.671Z,0
2016-05-22T04:37:07.690Z,0
2016-05-22T04:38:07.708Z,0
2016-05-22T04:39:07.741Z,0
2016-05-22T04:40:07.760Z,0
2016-05-22T04:41:07.793Z,0
2016-05-22T04:42:07.812Z,0
2016-05-22T04:43:07.862Z,0
2016-05-22T04:44:07.865Z,0
2016-05-22T04:45:07.867Z,0
2016-05-22T04:46:07.760Z,0
2016-05-22T04:47:07.935Z,0
2016-05-22T04:48:07.969Z,0
2016-05-22T04:49:07.690Z,5
2016-05-22T04:50:08.006Z,5
2016-05-22T04:51:08.040Z,5
2016-05-22T04:52:08.058Z,5
2016-05-22T04:53:08.092Z,5
2016-05-22T04:54:08.110Z,5
2016-05-22T04:55:08.128Z,5
2016-05-22T04:56:08.162Z,5
2016-05-22T04:57:08.180Z,5
2016-05-22T04:58:08.246Z,5
2016-05-22T04:59:08.077Z,5
2016-05-22T05:00:08.095Z,5
2016-05-22T05:01:08.285Z,5
2016-05-22T05:02:08.303Z,5
2016-05-22T05:03:08.321Z,5
2016-05-22T05:04:08.355Z,5
2016-05-22T05:05:08.390Z,5
2016-05-22T05:06:08.408Z,5
2016-05-22T05:07:08.426Z,5
2016-05-22T05:08:08.460Z,5
2016-05-22T05:09:08.479Z,5
2016-05-22T05:10:08.512Z,5
2016-05-22T05:11:08.532Z,5
2016-05-22T05:12:08.549Z,5
2016-05-22T05:13:08.489Z,5
2016-05-22T05:14:08.601Z,5
2016-05-22T05:15:08.635Z,5
2016-05-22T05:16:08.497Z,5
2016-05-22T05:17:08.673Z,5
2016-05-22T05:18:08.706Z,5
2016-05-22T05:19:08.723Z,5
2016-05-22T05:20:08.773Z,5
2016-05-22T05:21:08.776Z,5
2016-05-22T05:22:08.811Z,5
2016-05-22T05:23:08.829Z,5
2016-05-22T05:24:08.879Z,5
2016-05-22T05:25:08.896Z,5
2016-05-22T05:26:08.930Z,5
2016-05-22T05:27:08.934Z,5
2016-05-22T05:28:08.967Z,5
2016-05-22T05:29:08.986Z,5
2016-05-22T05:30:09.004Z,5
2016-05-22T05:31:09.022Z,5
2016-05-22T05:32:08.899Z,5
2016-05-22T05:33:09.075Z,5
2016-05-22T05:34:09.108Z,5
2016-05-22T05:35:09.127Z,5
2016-05-22T05:36:09.161Z,5
2016-05-22T05:37:09.180Z,5
2016-05-22T05:38:09.197Z,5
2016-05-22T05:39:09.216Z,5
2016-05-22T05:40:09.265Z,5
2016-05-22T05:41:09.283Z,5
2016-05-22T05:42:09.318Z,5
2016-05-22T05:43:10.368Z,5
2016-05-22T05:44:09.354Z,5
2016-05-22T05:45:09.387Z,5
2016-05-22T05:46:09.250Z,5
2016-05-22T05:47:09.112Z,5
2016-05-22T05:48:09.458Z,5
2016-05-22T05:49:09.321Z,5
2016-05-22T05:50:09.511Z,5
2016-05-22T05:51:09.529Z,5
2016-05-22T05:52:09.391Z,5
2016-05-22T05:53:09.582Z,5
2016-05-22T05:54:09.600Z,5
2016-05-22T05:55:09.618Z,5
2016-05-22T05:56:09.636Z,5
2016-05-22T05:57:09.514Z,5
2016-05-22T05:58:10.251Z,5
2016-05-22T05:59:09.738Z,5
2016-05-22T06:00:09.444Z,5
2016-05-22T06:01:09.775Z,5
2016-05-22T06:02:09.793Z,5
2016-05-22T06:03:09.827Z,5
2016-05-22T06:04:09.860Z,5
2016-05-22T06:05:09.723Z,5
2016-05-22T06:06:09.913Z,5
2016-05-22T06:07:09.932Z,5
2016-05-22T06:08:09.950Z,5
2016-05-22T06:09:10.015Z,5
2016-05-22T06:10:10.033Z,5
2016-05-22T06:11:09.880Z,5
2016-05-22T06:12:10.070Z,5
2016-05-22T06:13:10.760Z,5
2016-05-22T06:14:10.107Z,5
2016-05-22T06:15:10.141Z,5
2016-05-22T06:16:10.174Z,5
2016-05-22T06:17:10.037Z,5
2016-05-22T06:18:10.055Z,5
2016-05-22T06:19:10.090Z,5
2016-05-22T06:20:10.263Z,5
2016-05-22T06:21:10.125Z,5
2016-05-22T06:22:10.143Z,5
2016-05-22T06:23:10.350Z,5
2016-05-22T06:24:10.384Z,5
2016-05-22T06:25:10.402Z,5
2016-05-22T06:26:10.420Z,5
2016-05-22T06:27:10.453Z,5
2016-05-22T06:28:10.739Z,5
2016-05-22T06:29:10.491Z,5
2016-05-22T06:30:10.509Z,5
2016-05-22T06:31:10.372Z,5
2016-05-22T06:32:10.406Z,5
2016-05-22T06:33:10.422Z,5
2016-05-22T06:34:10.613Z,5
2016-05-22T06:35:10.632Z,5
2016-05-22T06:36:10.681Z,5
2016-05-22T06:37:11.184Z,5
2016-05-22T06:38:10.624Z,5
2016-05-22T06:39:10.751Z,5
2016-05-22T06:40:10.770Z,5
2016-05-22T06:41:10.616Z,5
2016-05-22T06:42:10.651Z,5
2016-05-22T06:43:11.435Z,5
2016-05-22T06:44:10.703Z,5
2016-05-22T06:45:10.877Z,5
2016-05-22T06:46:10.895Z,5
2016-05-22T06:47:10.774Z,5
2016-05-22T06:48:10.948Z,5
2016-05-22T06:49:10.982Z,5
2016-05-22T06:50:10.844Z,5
2016-05-22T06:51:11.034Z,5
2016-05-22T06:52:11.052Z,5
2016-05-22T06:53:10.773Z,5
2016-05-22T06:54:11.104Z,5
2016-05-22T06:55:10.982Z,5
2016-05-22T06:56:11.157Z,5
2016-05-22T06:57:11.206Z,5
2016-05-22T06:58:11.944Z,5
2016-05-22T06:59:11.072Z,5
2016-05-22T07:00:11.245Z,5
2016-05-22T07:01:11.124Z,5
2016-05-22T07:02:11.314Z,5
2016-05-22T07:03:11.175Z,5
2016-05-22T07:04:11.366Z,5
2016-05-22T07:05:11.384Z,5
2016-05-22T07:06:11.105Z,5
2016-05-22T07:07:11.436Z,5
2016-05-22T07:08:11.314Z,5
2016-05-22T07:09:11.333Z,5
2016-05-22T07:10:11.522Z,5
2016-05-22T07:11:11.541Z,5
2016-05-22T07:12:11.575Z,5
2016-05-22T07:13:11.655Z,5
2016-05-22T07:14:11.299Z,5
2016-05-22T07:15:11.661Z,5
2016-05-22T07:16:11.663Z,5
2016-05-22T07:17:11.698Z,5
2016-05-22T07:18:11.419Z,10
2016-05-22T07:19:11.766Z,10
2016-05-22T07:20:11.628Z,10
2016-05-22T07:21:11.802Z,10
2016-05-22T07:22:11.680Z,10
2016-05-22T07:23:11.871Z,10
2016-05-22T07:24:11.732Z,10
2016-05-22T07:25:11.767Z,10
2016-05-22T07:26:11.785Z,10
2016-05-22T07:27:11.959Z,10
2016-05-22T07:28:12.040Z,10
2016-05-22T07:29:12.011Z,10
2016-05-22T07:30:12.030Z,10
2016-05-22T07:31:12.064Z,10
2016-05-22T07:32:12.098Z,10
2016-05-22T07:33:12.116Z,10
2016-05-22T07:34:11.993Z,10
2016-05-22T07:35:12.168Z,10
2016-05-22T07:36:12.203Z,10
2016-05-22T07:37:12.220Z,10
2016-05-22T07:38:12.098Z,10
2016-05-22T07:39:12.116Z,10
2016-05-22T07:40:12.307Z,10
2016-05-22T07:41:12.168Z,10
2016-05-22T07:42:12.202Z,10
2016-05-22T07:43:12.315Z,10
2016-05-22T07:44:12.427Z,10
2016-05-22T07:45:12.273Z,10
2016-05-22T07:46:12.463Z,10
2016-05-22T07:47:12.481Z,10
2016-05-22T07:48:12.374Z,10
2016-05-22T07:49:12.535Z,10
2016-05-22T07:50:12.568Z,15
2016-05-22T07:51:12.601Z,15
2016-05-22T07:52:12.635Z,15
2016-05-22T07:53:12.513Z,15
2016-05-22T07:54:12.687Z,20
2016-05-22T07:55:12.551Z,20
2016-05-22T07:56:12.740Z,20
2016-05-22T07:57:12.773Z,20
2016-05-22T07:58:13.012Z,20
2016-05-22T07:59:12.842Z,20
2016-05-22T08:00:12.844Z,20
2016-05-22T08:01:12.723Z,20
2016-05-22T08:02:12.913Z,20
2016-05-22T08:03:12.947Z,20
2016-05-22T08:04:12.792Z,20
2016-05-22T08:05:12.984Z,20
2016-05-22T08:06:13.017Z,20
2016-05-22T08:07:13.035Z,25
2016-05-22T08:08:13.069Z,25
2016-05-22T08:09:13.103Z,25
2016-05-22T08:10:12.966Z,25
2016-05-22T08:11:13.156Z,25
2016-05-22T08:12:13.174Z,25
2016-05-22T08:13:13.208Z,25
2016-05-22T08:14:13.241Z,25
2016-05-22T08:15:13.104Z,25
2016-05-22T08:16:13.278Z,30
2016-05-22T08:17:13.312Z,30
2016-05-22T08:18:13.346Z,25
2016-05-22T08:19:13.068Z,30
2016-05-22T08:20:13.257Z,30
2016-05-22T08:21:13.276Z,25
2016-05-22T08:22:13.466Z,25
2016-05-22T08:23:13.501Z,25
2016-05-22T08:24:13.518Z,25
2016-05-22T08:25:13.553Z,25
2016-05-22T08:26:13.587Z,25
2016-05-22T08:27:13.464Z,25
2016-05-22T08:28:13.686Z,20
2016-05-22T08:29:13.673Z,20
2016-05-22T08:30:13.676Z,20
2016-05-22T08:31:13.569Z,15
2016-05-22T08:32:13.743Z,15
2016-05-22T08:33:13.777Z,15
2016-05-22T08:34:13.812Z,15
2016-05-22T08:35:13.689Z,15
2016-05-22T08:36:13.567Z,20
2016-05-22T08:37:13.897Z,15
2016-05-22T08:38:13.916Z,15
2016-05-22T08:39:13.949Z,15
2016-05-22T08:40:13.984Z,15
2016-05-22T08:41:14.002Z,15
2016-05-22T08:42:13.880Z,15
2016-05-22T08:43:14.538Z,15
2016-05-22T08:44:13.791Z,15
2016-05-22T08:45:14.294Z,15
2016-05-22T08:46:14.219Z,15
2016-05-22T08:47:14.049Z,15
2016-05-22T08:48:14.161Z,15
2016-05-22T08:49:14.101Z,15
2016-05-22T08:50:14.370Z,15
2016-05-22T08:51:14.310Z,15
2016-05-22T08:52:14.453Z,15
2016-05-22T08:53:14.362Z,15
2016-05-22T08:54:14.427Z,15
2016-05-22T08:55:14.430Z,15
2016-05-22T08:56:14.167Z,15
2016-05-22T08:57:14.545Z,15
2016-05-22T08:58:15.298Z,15
2016-05-22T08:59:14.550Z,15
2016-05-22T09:00:14.584Z,15
2016-05-22T09:01:14.602Z,15
2016-05-22T09:02:14.636Z,15
2016-05-22T09:03:14.655Z,15
2016-05-22T09:04:14.704Z,15
2016-05-22T09:05:14.722Z,15
2016-05-22T09:06:14.600Z,15
2016-05-22T09:07:14.619Z,15
2016-05-22T09:08:14.684Z,15
2016-05-22T09:09:14.686Z,15
2016-05-22T09:10:14.908Z,15
2016-05-22T09:11:14.942Z,15
2016-05-22T09:12:14.929Z,15
2016-05-22T09:13:16.119Z,15
2016-05-22T09:14:14.841Z,20
2016-05-22T09:15:15.031Z,20
2016-05-22T09:16:15.080Z,20
2016-05-22T09:17:15.098Z,20
2016-05-22T09:18:14.976Z,20
2016-05-22T09:19:15.166Z,20
2016-05-22T09:20:15.185Z,20
2016-05-22T09:21:15.046Z,20
2016-05-22T09:22:15.237Z,20
2016-05-22T09:23:14.959Z,20
2016-05-22T09:24:15.383Z,20
2016-05-22T09:25:15.339Z,20
2016-05-22T09:26:15.357Z,20
2016-05-22T09:27:15.376Z,20
2016-05-22T09:28:16.050Z,20
2016-05-22T09:29:15.459Z,20
2016-05-22T09:30:15.165Z,20
2016-05-22T09:31:15.527Z,20
2016-05-22T09:32:15.562Z,20
2016-05-22T09:33:15.579Z,25
2016-05-22T09:34:15.613Z,25
2016-05-22T09:35:15.725Z,25
2016-05-22T09:36:15.681Z,25
2016-05-22T09:37:15.699Z,25
2016-05-22T09:38:15.749Z,25
2016-05-22T09:39:15.877Z,25
2016-05-22T09:40:15.786Z,25
2016-05-22T09:41:15.835Z,25
2016-05-22T09:42:15.853Z,30
2016-05-22T09:43:16.044Z,30
2016-05-22T09:44:15.921Z,30
2016-05-22T09:45:15.955Z,30
2016-05-22T09:46:16.083Z,30
2016-05-22T09:47:16.008Z,30
2016-05-22T09:48:16.041Z,30
2016-05-22T09:49:16.075Z,35
2016-05-22T09:50:16.125Z,35
2016-05-22T09:51:16.143Z,30
2016-05-22T09:52:16.177Z,35
2016-05-22T09:53:16.071Z,30
2016-05-22T09:54:16.089Z,30
2016-05-22T09:55:16.279Z,35
2016-05-22T09:56:16.298Z,35
2016-05-22T09:57:16.378Z,35
2016-05-22T09:58:16.756Z,30
2016-05-22T09:59:16.259Z,30
2016-05-22T10:00:16.511Z,30
2016-05-22T10:01:16.498Z,30
2016-05-22T10:02:16.532Z,30
2016-05-22T10:03:16.691Z,30
2016-05-22T10:04:16.522Z,30
2016-05-22T10:05:16.447Z,30
2016-05-22T10:06:16.575Z,30
2016-05-22T10:07:16.656Z,30
2016-05-22T10:08:16.564Z,30
2016-05-22T10:09:16.739Z,30
2016-05-22T10:10:16.881Z,30
2016-05-22T10:11:16.884Z,30
2016-05-22T10:12:16.669Z,30
2016-05-22T10:13:16.593Z,30
2016-05-22T10:14:16.736Z,30
2016-05-22T10:15:16.927Z,35
2016-05-22T10:16:16.804Z,35
2016-05-22T10:17:17.026Z,35
2016-05-22T10:18:16.871Z,35
2016-05-22T10:19:16.938Z,35
2016-05-22T10:20:17.205Z,30
2016-05-22T10:21:17.068Z,35
2016-05-22T10:22:17.289Z,35
2016-05-22T10:23:17.291Z,35
2016-05-22T10:24:17.294Z,35
2016-05-22T10:25:17.204Z,35
2016-05-22T10:26:17.299Z,35
2016-05-22T10:27:17.256Z,35
2016-05-22T10:28:17.399Z,35
2016-05-22T10:29:17.401Z,35
2016-05-22T10:30:17.279Z,30
2016-05-22T10:31:17.312Z,30
2016-05-22T10:32:17.285Z,30
2016-05-22T10:33:17.304Z,35
2016-05-22T10:34:17.415Z,35
2016-05-22T10:35:17.606Z,30
2016-05-22T10:36:17.499Z,35
2016-05-22T10:37:17.673Z,35
2016-05-22T10:38:17.629Z,35
2016-05-22T10:39:17.428Z,35
2016-05-22T10:40:17.869Z,35
2016-05-22T10:41:17.919Z,35
2016-05-22T10:42:17.687Z,35
2016-05-22T10:43:17.283Z,30
2016-05-22T10:44:17.927Z,30
2016-05-22T10:45:17.944Z,35
2016-05-22T10:46:17.979Z,35
2016-05-22T10:47:18.027Z,35
2016-05-22T10:48:18.108Z,35
2016-05-22T10:49:18.174Z,35
2016-05-22T10:50:18.224Z,35
2016-05-22T10:51:18.211Z,35
2016-05-22T10:52:17.979Z,35
2016-05-22T10:53:18.372Z,35
2016-05-22T10:54:18.094Z,35
2016-05-22T10:55:18.285Z,35
2016-05-22T10:56:18.335Z,35
2016-05-22T10:57:18.429Z,35
2016-05-22T10:58:19.682Z,35
2016-05-22T10:59:18.123Z,35
2016-05-22T11:00:18.470Z,35
2016-05-22T11:01:18.504Z,35
2016-05-22T11:02:18.490Z,35
2016-05-22T11:03:18.571Z,35
2016-05-22T11:04:18.668Z,40
2016-05-22T11:05:18.640Z,40
2016-05-22T11:06:18.532Z,40
2016-05-22T11:07:18.566Z,40
2016-05-22T11:08:18.756Z,40
2016-05-22T11:09:18.790Z,40
2016-05-22T11:10:18.761Z,40
2016-05-22T11:11:18.875Z,40
2016-05-22T11:12:18.892Z,40
2016-05-22T11:13:19.176Z,40
2016-05-22T11:14:18.975Z,40
2016-05-22T11:15:18.994Z,40
2016-05-22T11:16:18.809Z,40
2016-05-22T11:17:19.250Z,40
2016-05-22T11:18:19.127Z,40
2016-05-22T11:19:18.989Z,40
2016-05-22T11:20:19.101Z,40
2016-05-22T11:21:19.057Z,40
2016-05-22T11:22:19.357Z,40
2016-05-22T11:23:19.391Z,45
2016-05-22T11:24:19.175Z,45
2016-05-22T11:25:19.365Z,45
2016-05-22T11:26:19.180Z,40
2016-05-22T11:27:19.277Z,40
2016-05-22T11:28:19.482Z,45
2016-05-22T11:29:19.282Z,45
2016-05-22T11:30:19.534Z,45
2016-05-22T11:31:19.521Z,45
2016-05-22T11:32:19.712Z,45
2016-05-22T11:33:19.809Z,50
2016-05-22T11:34:19.796Z,50
2016-05-22T11:35:19.845Z,50
2016-05-22T11:36:19.551Z,55
2016-05-22T11:37:19.648Z,50
2016-05-22T11:38:19.837Z,50
2016-05-22T11:39:19.871Z,50
2016-05-22T11:40:19.905Z,50
2016-05-22T11:41:19.830Z,50
2016-05-22T11:42:19.926Z,50
2016-05-22T11:43:19.570Z,50
2016-05-22T11:44:19.900Z,50
2016-05-22T11:45:20.184Z,50
2016-05-22T11:46:19.969Z,55
2016-05-22T11:47:20.159Z,55
2016-05-22T11:48:20.302Z,55
2016-05-22T11:49:20.319Z,55
2016-05-22T11:50:20.230Z,55
2016-05-22T11:51:20.310Z,55
2016-05-22T11:52:20.360Z,50
2016-05-22T11:53:20.081Z,50
2016-05-22T11:54:20.427Z,50
2016-05-22T11:55:20.477Z,55
2016-05-22T11:56:20.386Z,50
2016-05-22T11:57:20.326Z,50
2016-05-22T11:58:21.313Z,55
2016-05-22T11:59:20.471Z,55
2016-05-22T12:00:20.740Z,55
2016-05-22T12:01:20.696Z,55
2016-05-22T12:02:20.746Z,55
2016-05-22T12:03:20.718Z,50
2016-05-22T12:04:20.798Z,55
2016-05-22T12:05:20.691Z,50
2016-05-22T12:06:20.881Z,55
2016-05-22T12:07:21.025Z,55
2016-05-22T12:08:20.918Z,55
2016-05-22T12:09:20.998Z,60
2016-05-22T12:10:21.064Z,60
2016-05-22T12:11:21.067Z,60
2016-05-22T12:12:20.960Z,65
2016-05-22T12:13:21.354Z,60
2016-05-22T12:14:21.043Z,60
2016-05-22T12:15:21.218Z,65
2016-05-22T12:16:21.408Z,65
2016-05-22T12:17:21.395Z,65
2016-05-22T12:18:21.430Z,65
2016-05-22T12:19:21.463Z,65
2016-05-22T12:20:21.419Z,60
2016-05-22T12:21:21.437Z,60
2016-05-22T12:22:21.330Z,60
2016-05-22T12:23:21.364Z,60
2016-05-22T12:24:21.571Z,60
2016-05-22T12:25:21.683Z,60
2016-05-22T12:26:21.514Z,55
2016-05-22T12:27:21.719Z,55
2016-05-22T12:28:21.924Z,55
2016-05-22T12:29:21.771Z,60
2016-05-22T12:30:21.946Z,60
2016-05-22T12:31:21.885Z,65
2016-05-22T12:32:21.795Z,60
2016-05-22T12:33:22.016Z,65
2016-05-22T12:34:22.128Z,60
2016-05-22T12:35:22.021Z,60
2016-05-22T12:36:22.225Z,60
2016-05-22T12:37:21.796Z,60
2016-05-22T12:38:22.319Z,60
2016-05-22T12:39:22.247Z,60
2016-05-22T12:40:22.253Z,60
2016-05-22T12:41:22.330Z,60
2016-05-22T12:42:22.231Z,55
2016-05-22T12:43:22.194Z,55
2016-05-22T12:44:22.468Z,55
2016-05-22T12:45:22.510Z,55
2016-05-22T12:46:22.406Z,55
2016-05-22T12:47:22.350Z,55
2016-05-22T12:48:22.480Z,55
2016-05-22T12:49:22.673Z,55
2016-05-22T12:50:22.568Z,55
2016-05-22T12:51:22.870Z,55
2016-05-22T12:52:22.873Z,55
2016-05-22T12:53:22.845Z,55
2016-05-22T12:54:22.880Z,55
2016-05-22T12:55:22.931Z,55
2016-05-22T12:56:22.809Z,55
2016-05-22T12:57:22.999Z,55
2016-05-22T12:58:23.643Z,55
2016-05-22T12:59:23.083Z,55
2016-05-22T13:00:23.228Z,55
2016-05-22T13:01:23.074Z,55
2016-05-22T13:02:23.202Z,55
2016-05-22T13:03:23.205Z,60
2016-05-22T13:04:23.334Z,60
2016-05-22T13:05:23.211Z,60
2016-05-22T13:06:23.230Z,60
2016-05-22T13:07:23.279Z,60
2016-05-22T13:08:23.438Z,60
2016-05-22T13:09:23.441Z,60
2016-05-22T13:10:23.537Z,60
2016-05-22T13:11:24.117Z,60
2016-05-22T13:12:23.448Z,60
2016-05-22T13:13:23.561Z,60
2016-05-22T13:14:23.814Z,55
2016-05-22T13:15:23.817Z,65
2016-05-22T13:16:26.053Z,55
2016-05-22T13:17:23.822Z,55
2016-05-22T13:18:23.700Z,65
2016-05-22T13:19:23.733Z,65
2016-05-22T13:20:23.923Z,60
2016-05-22T13:21:23.833Z,65
2016-05-22T13:22:23.694Z,60
2016-05-22T13:23:24.197Z,65
2016-05-22T13:24:24.606Z,55
2016-05-22T13:25:24.187Z,55
2016-05-22T13:26:24.268Z,60
2016-05-22T13:27:24.254Z,70
2016-05-22T13:28:24.977Z,70
2016-05-22T13:29:24.135Z,60
2016-05-22T13:30:24.324Z,65
2016-05-22T13:31:26.110Z,70
2016-05-22T13:32:24.518Z,75
2016-05-22T13:33:24.349Z,75
2016-05-22T13:34:24.524Z,80
2016-05-22T13:35:24.432Z,75
2016-05-22T13:36:24.623Z,70
2016-05-22T13:37:24.343Z,60
2016-05-22T13:38:24.738Z,60
2016-05-22T13:39:24.693Z,55
2016-05-22T13:40:24.821Z,65
2016-05-22T13:41:24.761Z,70
2016-05-22T13:42:24.732Z,70
2016-05-22T13:43:25.173Z,75
2016-05-22T13:44:24.894Z,75
2016-05-22T13:45:24.882Z,75
2016-05-22T13:46:24.884Z,70
2016-05-22T13:47:24.856Z,65
2016-05-22T13:48:25.186Z,60
2016-05-22T13:49:24.939Z,60
2016-05-22T13:50:25.254Z,55
2016-05-22T13:51:25.256Z,55
2016-05-22T13:52:25.322Z,55
2016-05-22T13:53:25.372Z,55
2016-05-22T13:54:25.421Z,55
2016-05-22T13:55:25.392Z,50
2016-05-22T13:56:25.380Z,50
2016-05-22T13:57:25.491Z,50
2016-05-22T13:58:25.355Z,55
2016-05-22T13:59:25.513Z,55
2016-05-22T14:00:25.421Z,55
2016-05-22T14:01:25.518Z,55
2016-05-22T14:02:25.677Z,55
2016-05-22T14:03:25.757Z,50
2016-05-22T14:04:25.713Z,50
2016-05-22T14:05:25.904Z,50
2016-05-22T14:06:25.641Z,50
2016-05-22T14:07:25.659Z,50
2016-05-22T14:08:25.865Z,50
2016-05-22T14:09:25.993Z,50
2016-05-22T14:10:25.917Z,55
2016-05-22T14:11:26.076Z,55
2016-05-22T14:12:25.970Z,60
2016-05-22T14:13:26.488Z,70
2016-05-22T14:14:26.115Z,70
2016-05-22T14:15:26.149Z,70
2016-05-22T14:16:26.058Z,70
2016-05-22T14:17:26.092Z,70
2016-05-22T14:18:26.267Z,60
2016-05-22T14:19:26.316Z,60
2016-05-22T14:20:26.070Z,60
2016-05-22T14:21:26.228Z,55
2016-05-22T14:22:26.293Z,50
2016-05-22T14:23:26.328Z,45
2016-05-22T14:24:26.517Z,45
2016-05-22T14:25:26.582Z,45
2016-05-22T14:26:26.632Z,45
2016-05-22T14:27:26.511Z,45
2016-05-22T14:28:27.419Z,45
2016-05-22T14:29:26.749Z,45
2016-05-22T14:30:26.924Z,45
2016-05-22T14:31:26.864Z,45